Time;durP1;ratioP1;P1;durP2;ratioP2;P2;SDS_P1;SDS_P2;PMS_P1;PMS_P2;Temp;Humidity;BMP_temperature;BMP_pressure;BME280_temperature;BME280_humidity;BME280_pressure;Samples;Min_cycle;Max_cycle;Signal;HPM_P1;HPM_P2
2021/12/19 00:16:48;;;;;;;0.20;0.20;;;8.10;96.40;7.00;103486.00;;;;31393364;28;20544;-75
2021/12/19 00:31:49;;;;;;;0.35;0.35;;;7.80;96.00;6.80;103484.00;;;;31429168;28;20084;-74
2021/12/19 00:47:04;;;;;;;0.22;0.22;;;7.90;96.30;6.80;103475.00;;;;31427323;28;20037;-74
2021/12/19 01:02:05;;;;;;;0.20;0.20;;;7.80;96.60;6.60;103466.00;;;;31422163;28;20044;-73
2021/12/19 01:17:08;;;;;;;0.20;0.20;;;7.80;96.80;6.50;103445.00;;;;31421437;28;20131;-74
2021/12/19 01:32:10;;;;;;;0.20;0.20;;;7.70;97.30;6.50;103447.00;;;;31425712;28;20044;-73
2021/12/19 01:47:12;;;;;;;0.30;0.30;;;7.60;96.90;6.50;103438.00;;;;31422192;28;20049;-74
2021/12/19 02:02:13;;;;;;;0.30;0.30;;;7.50;96.80;6.30;103441.00;;;;31398029;28;20547;-73
2021/12/19 02:17:14;;;;;;;0.30;0.30;;;7.90;97.30;6.10;103424.00;;;;31409515;28;20032;-73
2021/12/19 02:32:15;;;;;;;0.37;0.37;;;7.90;97.20;6.00;103412.00;;;;31408741;28;20218;-73
2021/12/19 03:02:42;;;;;;;0.20;0.20;;;7.20;97.20;6.10;103379.00;;;;31399063;28;20052;-73
2021/12/19 03:18:10;;;;;;;0.20;0.20;;;7.20;97.30;6.10;103378.00;;;;31417110;28;20086;-73
2021/12/19 03:49:52;;;;;;;0.30;0.30;;;7.20;97.60;6.00;103355.00;;;;31433983;28;20048;-73
2021/12/19 04:04:59;;;;;;;0.20;0.20;;;7.20;97.20;6.00;103334.00;;;;31444767;28;20080;-73
2021/12/19 04:20:00;;;;;;;0.20;0.20;;;7.20;97.60;5.90;103294.00;;;;31445456;28;20431;-73
2021/12/19 04:35:01;;;;;;;0.20;0.20;;;7.10;97.30;5.80;103275.00;;;;31431752;28;20043;-73
2021/12/19 05:20:29;;;;;;;0.30;0.30;;;6.90;97.50;5.80;103268.00;;;;31426702;28;20135;-74
2021/12/19 05:50:50;;;;;;;0.20;0.20;;;7.00;97.30;5.90;103242.00;;;;31429438;28;20477;-74
2021/12/19 06:05:50;;;;;;;0.20;0.20;;;7.20;97.30;6.00;103235.00;;;;31434148;28;20566;-72
2021/12/19 06:20:51;;;;;;;0.20;0.20;;;7.20;97.70;5.90;103235.00;;;;31436038;28;20565;-72
2021/12/19 06:35:52;;;;;;;0.20;0.20;;;7.20;97.80;6.00;103212.00;;;;31436392;28;20717;-73
2021/12/19 06:50:54;;;;;;;0.20;0.20;;;7.20;97.40;6.00;103218.00;;;;31418488;28;20041;-72
2021/12/19 07:05:55;;;;;;;0.15;0.15;;;7.20;97.60;6.00;103192.00;;;;31429237;28;20052;-73
2021/12/19 07:20:56;;;;;;;0.20;0.20;;;7.20;98.00;6.00;103199.00;;;;31431227;28;20037;-73
2021/12/19 07:35:59;;;;;;;0.20;0.20;;;7.20;98.10;6.10;103185.00;;;;31424871;28;20083;-73
2021/12/19 07:51:00;;;;;;;0.20;0.20;;;7.30;97.60;6.20;103179.00;;;;31434376;28;20044;-73
2021/12/19 08:06:02;;;;;;;0.20;0.20;;;7.40;97.70;6.30;103179.00;;;;31429943;28;20063;-73
2021/12/19 08:21:03;;;;;;;0.20;0.20;;;7.40;98.10;6.30;103167.00;;;;31431881;28;20047;-76
2021/12/19 08:36:05;;;;;;;0.20;0.20;;;7.40;98.40;6.30;103166.00;;;;31450807;28;20036;-76
2021/12/19 08:51:07;;;;;;;0.40;0.40;;;7.40;97.60;6.30;103158.00;;;;31445992;28;21627;-76
2021/12/19 09:06:08;;;;;;;0.20;0.20;;;7.50;97.10;6.40;103140.00;;;;31458169;28;20147;-76
2021/12/19 09:21:09;;;;;;;0.20;0.20;;;7.50;97.60;6.50;103141.00;;;;31409080;28;20044;-76
2021/12/19 09:36:11;;;;;;;0.25;0.25;;;8.00;97.30;6.60;103161.00;;;;31422798;28;20052;-76
2021/12/19 09:51:14;;;;;;;0.30;0.30;;;7.70;96.50;6.60;103154.00;;;;31404388;28;20059;-76
2021/12/19 10:06:23;;;;;;;0.20;0.20;;;7.70;96.30;6.70;103153.00;;;;31411836;28;20760;-76
2021/12/19 10:21:27;;;;;;;0.15;0.15;;;7.80;96.80;6.60;103127.00;;;;31430794;28;20434;-76
2021/12/19 10:36:29;;;;;;;0.20;0.20;;;7.80;96.10;6.70;103120.00;;;;31423575;28;20644;-76
2021/12/19 10:51:37;;;;;;;0.20;0.20;;;7.80;96.10;6.70;103083.00;;;;31421526;28;20047;-76
2021/12/19 11:06:48;;;;;;;0.20;0.20;;;7.80;96.20;6.70;103063.00;;;;31398969;28;20189;-75
2021/12/19 11:21:49;;;;;;;0.20;0.20;;;8.20;96.80;6.70;103050.00;;;;31415832;28;20078;-76
2021/12/19 11:36:59;;;;;;;0.30;0.30;;;7.80;96.70;6.70;103028.00;;;;31405974;28;20048;-75
2021/12/19 11:52:30;;;;;;;0.20;0.20;;;7.90;96.50;6.70;103017.00;;;;31430295;28;20082;-75
2021/12/19 12:08:10;;;;;;;0.10;0.10;;;7.90;95.80;6.80;103004.00;;;;31434240;28;21414;-74
2021/12/19 12:23:11;;;;;;;0.10;0.10;;;7.60;95.70;6.70;102986.00;;;;31412291;28;20075;-75
2021/12/19 12:38:13;;;;;;;0.20;0.20;;;7.80;96.00;6.60;102961.00;;;;31415761;28;20065;-75
2021/12/19 12:53:34;;;;;;;0.30;0.30;;;7.70;95.00;6.60;102960.00;;;;31430832;28;20495;-75
2021/12/19 13:08:35;;;;;;;0.20;0.20;;;7.80;95.00;6.70;102931.00;;;;31411621;28;20044;-75
2021/12/19 13:23:37;;;;;;;0.20;0.20;;;7.80;95.60;6.80;102932.00;;;;31413007;28;20080;-76
2021/12/19 13:38:38;;;;;;;0.20;0.20;;;7.90;94.90;6.70;102918.00;;;;31428905;28;20561;-77
2021/12/19 13:53:48;;;;;;;0.20;0.20;;;7.40;95.20;6.80;102905.00;;;;31425414;28;20519;-75
2021/12/19 14:08:55;;;;;;;0.20;0.20;;;7.90;95.20;6.80;102901.00;;;;31400950;28;20607;-74
2021/12/19 14:24:26;;;;;;;0.20;0.20;;;7.90;95.50;6.80;102886.00;;;;31397564;28;20159;-75
2021/12/19 14:39:29;;;;;;;0.20;0.20;;;7.90;95.50;6.80;102869.00;;;;31423144;28;20052;-74
2021/12/19 14:54:30;;;;;;;0.20;0.20;;;7.90;95.60;6.80;102860.00;;;;31406860;28;20062;-74
2021/12/19 15:09:31;;;;;;;0.20;0.20;;;7.90;95.90;6.70;102846.00;;;;31403203;28;20048;-74
2021/12/19 15:24:33;;;;;;;0.65;0.65;;;7.90;96.10;6.70;102836.00;;;;31386619;28;20051;-74
2021/12/19 15:39:34;;;;;;;0.20;0.20;;;7.90;96.20;6.70;102828.00;;;;31431987;28;20107;-75
2021/12/19 15:54:35;;;;;;;0.40;0.40;;;7.80;96.60;6.60;102812.00;;;;31438881;28;20048;-75
2021/12/19 16:09:38;;;;;;;0.30;0.30;;;7.80;96.40;6.60;102810.00;;;;31402529;28;20041;-73
2021/12/19 16:24:39;;;;;;;0.20;0.20;;;7.70;96.70;6.60;102796.00;;;;31447541;28;20052;-73
2021/12/19 16:39:40;;;;;;;0.38;0.38;;;7.80;96.70;6.60;102791.00;;;;31420322;28;20040;-73
2021/12/19 16:54:42;;;;;;;0.25;0.25;;;7.80;97.10;6.80;102789.00;;;;31412297;28;20056;-73
2021/12/19 17:09:42;;;;;;;0.20;0.20;;;7.90;96.40;6.70;102786.00;;;;31430803;28;20045;-73
2021/12/19 17:24:44;;;;;;;1.02;1.00;;;7.90;96.80;6.80;102781.00;;;;31432106;28;20040;-73
2021/12/19 17:39:46;;;;;;;0.20;0.20;;;7.90;96.20;6.70;102758.00;;;;31430814;28;20135;-73
2021/12/19 17:54:47;;;;;;;0.30;0.30;;;8.40;96.80;6.80;102754.00;;;;31425041;28;20496;-73
2021/12/19 18:09:49;;;;;;;0.30;0.30;;;8.00;96.50;6.70;102758.00;;;;31393516;28;20798;-73
2021/12/19 18:24:50;;;;;;;0.20;0.20;;;7.90;96.80;6.70;102752.00;;;;31366896;28;20036;-73
2021/12/19 18:39:57;;;;;;;0.20;0.20;;;7.80;96.50;6.60;102751.00;;;;31418845;28;20037;-73
2021/12/19 19:10:30;;;;;;;0.20;0.20;;;7.80;97.00;6.70;102744.00;;;;31397004;28;20051;-73
2021/12/19 19:25:32;;;;;;;0.25;0.25;;;7.80;97.20;6.70;102747.00;;;;31398074;28;20571;-72
2021/12/19 19:40:57;;;;;;;0.30;0.30;;;7.90;96.80;6.70;102744.00;;;;31390926;28;20044;-73
2021/12/19 19:55:58;;;;;;;1.45;1.45;;;7.90;97.30;6.60;102730.00;;;;31417012;28;20063;-73
2021/12/19 20:10:59;;;;;;;0.25;0.25;;;7.80;96.90;6.60;102728.00;;;;31413149;28;20407;-73
2021/12/19 20:26:00;;;;;;;0.30;0.30;;;7.80;97.40;6.60;102754.00;;;;31407860;28;20060;-73
2021/12/19 20:41:02;;;;;;;0.20;0.20;;;7.60;96.80;6.40;102752.00;;;;31420462;28;20111;-72
2021/12/19 20:56:03;;;;;;;0.20;0.20;;;7.60;97.40;6.40;102748.00;;;;31428760;28;20063;-72
2021/12/19 21:11:04;;;;;;;0.20;0.20;;;7.50;96.50;6.40;102750.00;;;;31426078;28;20048;-73
2021/12/19 21:26:06;;;;;;;0.20;0.20;;;7.40;97.20;6.50;102749.00;;;;31413048;28;20163;-72
2021/12/19 21:41:07;;;;;;;0.20;0.20;;;7.70;96.80;6.50;102727.00;;;;31395573;28;20139;-73
2021/12/19 21:56:09;;;;;;;0.20;0.20;;;7.70;97.20;6.60;102737.00;;;;31442176;28;20175;-72
2021/12/19 22:11:15;;;;;;;0.28;0.28;;;7.80;97.60;6.60;102713.00;;;;31403194;28;20083;-73
2021/12/19 22:26:16;;;;;;;0.20;0.20;;;7.80;97.30;6.60;102713.00;;;;31405469;28;20056;-73
2021/12/19 22:41:17;;;;;;;0.20;0.20;;;7.80;96.70;6.60;102725.00;;;;31407144;28;20056;-73
2021/12/19 22:56:18;;;;;;;0.30;0.30;;;7.80;97.20;6.50;102703.00;;;;31414995;28;20054;-73
2021/12/19 23:11:21;;;;;;;0.20;0.20;;;7.70;96.70;6.50;102703.00;;;;31403596;28;20291;-72
2021/12/19 23:26:28;;;;;;;0.25;0.25;;;7.70;97.20;6.40;102688.00;;;;31432550;28;20041;-72
2021/12/19 23:56:40;;;;;;;0.10;0.10;;;7.60;96.90;6.40;102675.00;;;;31439176;28;20093;-72
